TimeCST,TemperatureF,Dew PointF,Humidity,Sea Level PressureIn,VisibilityMPH,Wind Direction,Wind SpeedMPH,Gust SpeedMPH,PrecipitationIn,Events,Conditions,WindDirDegrees,DateUTC
12:13 AM,1.4,-4.0,78,30.01,10.0,SSE,10.4,-,N/A,,Overcast,160,2013-01-25 06:13:00
12:33 AM,3.2,-4.0,72,30.00,10.0,South,8.1,-,N/A,Snow,Light Snow,170,2013-01-25 06:33:00
12:53 AM,3.2,-4.0,72,29.99,7.0,SSE,9.2,-,N/A,Snow,Light Snow,160,2013-01-25 06:53:00
1:14 AM,3.2,-4.0,72,29.97,7.0,SSE,8.1,-,N/A,Snow,Light Snow,160,2013-01-25 07:14:00
1:54 AM,3.2,-2.2,78,29.94,7.0,SSE,10.4,16.1,N/A,Snow,Light Snow,160,2013-01-25 07:54:00
2:13 AM,3.2,-2.2,78,29.93,10.0,SSE,8.1,-,N/A,Snow,Light Snow,160,2013-01-25 08:13:00
2:53 AM,3.2,-2.2,78,29.90,7.0,SSE,9.2,-,N/A,Snow,Light Snow,150,2013-01-25 08:53:00
3:13 AM,3.2,-2.2,78,29.89,5.0,SSE,6.9,-,N/A,Snow,Light Snow,160,2013-01-25 09:13:00
3:33 AM,3.2,-2.2,78,29.88,5.0,SSE,8.1,-,N/A,Snow,Light Snow,160,2013-01-25 09:33:00
3:53 AM,3.2,-2.2,78,29.86,5.0,SSE,9.2,-,N/A,Snow,Light Snow,150,2013-01-25 09:53:00
4:13 AM,3.2,-2.2,78,29.85,5.0,SSE,5.8,-,N/A,Snow,Light Snow,160,2013-01-25 10:13:00
4:33 AM,3.2,-2.2,78,29.84,2.5,SSE,6.9,-,N/A,Snow,Light Snow,160,2013-01-25 10:33:00
4:53 AM,3.2,-0.4,85,29.83,1.5,SSE,4.6,-,N/A,Snow,Snow,160,2013-01-25 10:53:00
5:13 AM,3.2,-0.4,85,29.83,3.0,SE,3.5,-,N/A,Snow,Light Snow,130,2013-01-25 11:13:00
5:33 AM,3.2,-0.4,85,29.82,2.0,Calm,Calm,-,N/A,Snow,Light Snow,0,2013-01-25 11:33:00
5:53 AM,3.2,-0.4,85,29.81,4.0,Calm,Calm,-,N/A,Snow,Light Snow,0,2013-01-25 11:53:00
6:13 AM,3.2,-0.4,85,29.81,4.0,Calm,Calm,-,N/A,Snow,Light Snow,0,2013-01-25 12:13:00
6:33 AM,3.2,-0.4,85,29.81,1.5,Calm,Calm,-,N/A,Snow,Light Snow,0,2013-01-25 12:33:00
6:53 AM,3.2,-0.4,85,29.80,2.0,Calm,Calm,-,N/A,,Overcast,0,2013-01-25 12:53:00
7:13 AM,3.2,-0.4,85,29.81,2.5,Calm,Calm,-,N/A,Snow,Light Snow,0,2013-01-25 13:13:00
7:33 AM,3.2,-0.4,85,29.81,2.5,Calm,Calm,-,N/A,Snow,Light Snow,0,2013-01-25 13:33:00
7:53 AM,3.2,-0.4,85,29.81,3.0,Calm,Calm,-,N/A,Snow,Light Snow,0,2013-01-25 13:53:00
8:13 AM,3.2,-0.4,85,29.82,1.8,Calm,Calm,-,N/A,Snow,Light Snow,0,2013-01-25 14:13:00
8:33 AM,3.2,-2.2,78,29.83,2.5,Calm,Calm,-,N/A,Snow,Light Snow,0,2013-01-25 14:33:00
8:53 AM,1.4,-2.2,85,29.84,5.0,Calm,Calm,-,N/A,Snow,Light Snow,0,2013-01-25 14:53:00
9:13 AM,3.2,-0.4,85,29.85,10.0,Calm,Calm,-,N/A,Snow,Light Snow,0,2013-01-25 15:13:00
9:33 AM,5.0,-0.4,78,29.85,10.0,Calm,Calm,-,N/A,,Scattered Clouds,0,2013-01-25 15:33:00
9:53 AM,6.8,-0.4,72,29.86,10.0,Calm,Calm,-,N/A,,Clear,0,2013-01-25 15:53:00
10:13 AM,6.8,-0.4,72,29.87,10.0,NW,4.6,-,N/A,,Clear,320,2013-01-25 16:13:00
10:33 AM,6.8,-0.4,72,29.87,10.0,NW,4.6,-,N/A,,Clear,310,2013-01-25 16:33:00
10:53 AM,8.6,-0.4,67,29.89,10.0,NW,6.9,-,N/A,,Clear,320,2013-01-25 16:53:00
11:13 AM,8.6,-0.4,67,29.90,10.0,NW,8.1,-,N/A,,Scattered Clouds,310,2013-01-25 17:13:00
11:33 AM,8.6,-0.4,67,29.90,10.0,NW,6.9,-,N/A,,Mostly Cloudy,310,2013-01-25 17:33:00
11:53 AM,8.6,1.4,73,29.91,10.0,NW,6.9,-,N/A,,Overcast,320,2013-01-25 17:53:00
12:14 PM,8.6,1.4,73,29.92,10.0,NNW,6.9,-,N/A,,Overcast,330,2013-01-25 18:14:00
12:33 PM,8.6,-0.4,67,29.93,10.0,NW,8.1,-,N/A,,Overcast,320,2013-01-25 18:33:00
12:53 PM,8.6,-0.4,67,29.94,10.0,NW,6.9,-,N/A,,Mostly Cloudy,320,2013-01-25 18:53:00
1:13 PM,8.6,1.4,73,29.94,7.0,NW,5.8,-,N/A,,Mostly Cloudy,320,2013-01-25 19:13:00
1:33 PM,8.6,-0.4,67,29.96,10.0,NW,6.9,-,N/A,,Overcast,320,2013-01-25 19:33:00
1:53 PM,8.6,-0.4,67,29.97,7.0,NW,6.9,-,N/A,,Overcast,320,2013-01-25 19:53:00
2:13 PM,8.6,-0.4,67,29.97,7.0,NW,5.8,-,N/A,,Overcast,320,2013-01-25 20:13:00
2:33 PM,8.6,1.4,73,29.98,3.0,NW,8.1,-,N/A,Snow,Light Snow,320,2013-01-25 20:33:00
2:53 PM,8.6,-0.4,67,29.99,10.0,NW,4.6,-,N/A,,Overcast,320,2013-01-25 20:53:00
3:13 PM,6.8,-0.4,72,30.01,7.0,NW,5.8,-,N/A,,Overcast,320,2013-01-25 21:13:00
3:53 PM,6.8,1.4,79,30.03,7.0,NW,6.9,-,N/A,,Overcast,320,2013-01-25 21:53:00
4:13 PM,6.8,-0.4,72,30.04,10.0,NW,9.2,-,N/A,,Mostly Cloudy,320,2013-01-25 22:13:00
4:33 PM,5.0,-2.2,72,30.05,10.0,NW,8.1,-,N/A,,Scattered Clouds,320,2013-01-25 22:33:00
4:53 PM,5.0,-2.2,72,30.07,4.0,NW,6.9,-,N/A,,Haze,310,2013-01-25 22:53:00
5:13 PM,3.2,-2.2,78,30.08,10.0,NW,6.9,-,N/A,,Mostly Cloudy,320,2013-01-25 23:13:00
5:33 PM,3.2,-4.0,72,30.08,10.0,NW,4.6,-,N/A,,Clear,320,2013-01-25 23:33:00
5:53 PM,1.4,-4.0,78,30.09,10.0,NW,4.6,-,N/A,,Clear,320,2013-01-25 23:53:00
6:13 PM,1.4,-5.8,72,30.10,10.0,NW,5.8,-,N/A,,Clear,320,2013-01-26 00:13:00
6:33 PM,-0.4,-5.8,78,30.12,10.0,NW,4.6,-,N/A,,Clear,320,2013-01-26 00:33:00
6:54 PM,-0.4,-5.8,78,30.13,10.0,NW,4.6,-,N/A,,Clear,320,2013-01-26 00:54:00
7:15 PM,-2.2,-7.6,78,30.13,10.0,NNW,3.5,-,N/A,,Clear,330,2013-01-26 01:15:00
7:35 PM,-2.2,-7.6,78,30.13,10.0,NW,4.6,-,N/A,,Clear,320,2013-01-26 01:35:00
7:55 PM,-4.0,-9.4,78,30.13,10.0,NW,3.5,-,N/A,,Clear,320,2013-01-26 01:55:00
8:16 PM,-5.8,-9.4,84,30.14,10.0,Calm,Calm,-,N/A,,Clear,0,2013-01-26 02:16:00
8:35 PM,-5.8,-9.4,84,30.14,10.0,NW,3.5,-,N/A,,Clear,320,2013-01-26 02:35:00
8:53 PM,-5.8,-11.2,77,30.14,10.0,Calm,Calm,-,N/A,,Clear,0,2013-01-26 02:53:00
9:14 PM,-7.6,-11.2,84,30.13,10.0,Calm,Calm,-,N/A,,Clear,0,2013-01-26 03:14:00
9:33 PM,-7.6,-13.0,77,30.14,10.0,Calm,Calm,-,N/A,,Clear,0,2013-01-26 03:33:00
9:54 PM,-9.4,-14.8,77,30.15,10.0,Calm,Calm,-,N/A,,Clear,0,2013-01-26 03:54:00
10:15 PM,-9.4,-13.0,84,30.16,10.0,Calm,Calm,-,N/A,,Clear,0,2013-01-26 04:15:00
10:37 PM,-9.4,-13.0,84,30.17,10.0,NW,3.5,-,N/A,,Clear,310,2013-01-26 04:37:00
10:53 PM,-9.4,-13.0,84,30.19,10.0,NW,4.6,-,N/A,,Clear,310,2013-01-26 04:53:00
11:13 PM,-9.4,-14.8,77,30.19,10.0,Calm,Calm,-,N/A,,Clear,0,2013-01-26 05:13:00
11:33 PM,-9.4,-14.8,77,30.20,10.0,NW,3.5,-,N/A,,Clear,310,2013-01-26 05:33:00
11:53 PM,-9.4,-16.6,71,30.21,10.0,Calm,Calm,-,N/A,,Clear,0,2013-01-26 05:53:00